createdAt,value
2019-04-20T00:02:08.243Z,99.90
2019-04-20T00:04:37.348Z,99.90
2019-04-20T00:07:08.455Z,99.90
2019-04-20T00:09:41.674Z,99.90
2019-04-20T00:12:20.266Z,99.90
2019-04-20T00:14:46.484Z,99.90
2019-04-20T00:17:17.979Z,99.90
2019-04-20T00:20:04.749Z,99.90
2019-04-20T00:22:48.670Z,99.90
2019-04-20T00:25:47.194Z,99.90
2019-04-20T00:28:24.032Z,99.90
2019-04-20T00:31:01.147Z,99.90
2019-04-20T00:33:32.224Z,99.90
2019-04-20T00:35:50.416Z,99.90
2019-04-20T00:38:25.968Z,99.90
2019-04-20T00:41:12.498Z,99.90
2019-04-20T00:43:45.230Z,99.90
2019-04-20T00:47:08.605Z,99.90
2019-04-20T00:49:45.888Z,99.90
2019-04-20T00:52:35.684Z,99.90
2019-04-20T00:54:58.020Z,99.90
2019-04-20T00:58:20.187Z,99.90
2019-04-20T01:01:09.835Z,99.90
2019-04-20T01:03:52.051Z,99.90
2019-04-20T01:06:42.408Z,99.90
2019-04-20T01:12:47.526Z,99.90
2019-04-20T01:15:29.014Z,99.90
2019-04-20T01:17:53.721Z,99.90
2019-04-20T01:20:26.520Z,99.90
2019-04-20T01:23:07.560Z,99.90
2019-04-20T01:25:39.141Z,99.90
2019-04-20T01:28:33.333Z,99.90
2019-04-20T01:31:00.183Z,99.90
2019-04-20T01:33:31.882Z,99.90
2019-04-20T01:36:14.792Z,99.90
2019-04-20T01:38:43.548Z,99.90
2019-04-20T01:41:01.298Z,99.90
2019-04-20T01:43:33.273Z,99.90
2019-04-20T01:46:12.196Z,99.90
2019-04-20T01:48:41.498Z,99.90
2019-04-20T01:51:19.602Z,99.90
2019-04-20T01:54:06.644Z,99.90
2019-04-20T01:56:40.521Z,99.90
2019-04-20T01:59:28.960Z,99.90
2019-04-20T02:02:09.361Z,99.90
2019-04-20T02:04:50.280Z,99.90
2019-04-20T02:07:28.507Z,99.90
2019-04-20T02:09:59.858Z,99.90
2019-04-20T02:12:31.144Z,99.90
2019-04-20T02:15:19.091Z,99.90
2019-04-20T02:17:51.921Z,99.90
2019-04-20T02:20:37.515Z,99.90
2019-04-20T02:23:09.422Z,99.90
2019-04-20T02:25:34.033Z,99.90
2019-04-20T02:28:24.284Z,99.90
2019-04-20T02:36:40.379Z,99.90
2019-04-20T02:41:51.795Z,99.90
2019-04-20T02:46:55.671Z,99.90
2019-04-20T02:52:38.092Z,99.90
2019-04-20T02:55:04.109Z,99.90
2019-04-20T02:58:23.973Z,99.90
2019-04-20T03:00:54.704Z,99.90
2019-04-20T03:11:29.490Z,99.90
2019-04-20T03:13:59.052Z,99.90
2019-04-20T03:16:31.839Z,99.90
2019-04-20T03:19:06.823Z,99.90
2019-04-20T03:21:39.358Z,99.90
2019-04-20T03:24:20.331Z,99.90
2019-04-20T03:27:09.604Z,99.90
2019-04-20T03:30:07.150Z,99.90
2019-04-20T03:37:48.494Z,99.90
2019-04-20T03:40:12.547Z,99.90
2019-04-20T03:42:52.741Z,99.90
2019-04-20T03:45:26.617Z,99.90
2019-04-20T03:48:51.584Z,99.90
2019-04-20T03:51:34.320Z,99.90
2019-04-20T03:54:15.832Z,99.90
2019-04-20T03:57:09.192Z,99.90
2019-04-20T03:59:43.628Z,99.90
2019-04-20T04:05:07.307Z,99.90
2019-04-20T04:07:29.456Z,99.90
2019-04-20T04:10:09.535Z,99.90
2019-04-20T04:13:09.614Z,99.90
2019-04-20T04:16:37.436Z,99.90
2019-04-20T04:19:12.734Z,99.90
2019-04-20T04:25:59.933Z,99.90
2019-04-20T04:28:31.173Z,99.90
2019-04-20T04:31:08.356Z,99.90
2019-04-20T04:36:10.011Z,99.90
2019-04-20T04:38:47.543Z,99.90
2019-04-20T04:41:24.278Z,99.90
2019-04-20T04:43:53.941Z,99.90
2019-04-20T04:46:07.988Z,99.90
2019-04-20T04:48:44.235Z,99.90
2019-04-20T04:51:20.703Z,99.90
2019-04-20T04:53:55.076Z,99.90
2019-04-20T04:56:23.121Z,99.90
2019-04-20T04:58:53.725Z,99.90
2019-04-20T05:01:28.605Z,99.90
2019-04-20T05:04:22.978Z,99.90
2019-04-20T05:06:45.819Z,99.90
2019-04-20T05:09:09.038Z,99.90
2019-04-20T05:11:38.692Z,99.90
2019-04-20T05:14:15.031Z,99.90
2019-04-20T05:16:58.255Z,99.90
2019-04-20T05:19:38.186Z,99.90
2019-04-20T05:22:32.155Z,99.90
2019-04-20T05:25:04.674Z,99.90
2019-04-20T05:27:52.473Z,99.90
2019-04-20T05:30:03.616Z,99.90
2019-04-20T05:32:44.590Z,99.90
2019-04-20T05:35:35.448Z,99.90
2019-04-20T05:38:08.081Z,99.90
2019-04-20T05:40:38.347Z,99.90
2019-04-20T05:43:15.531Z,99.90
2019-04-20T05:45:45.034Z,99.90
2019-04-20T05:48:16.411Z,99.90
2019-04-20T05:50:56.076Z,99.90
2019-04-20T05:53:34.026Z,99.90
2019-04-20T05:56:02.923Z,99.90
2019-04-20T05:58:41.937Z,99.90
2019-04-20T06:01:12.223Z,99.90
2019-04-20T06:03:42.558Z,99.90
2019-04-20T06:06:16.831Z,99.90
2019-04-20T06:08:53.837Z,99.90
2019-04-20T06:11:26.667Z,99.90
2019-04-20T06:14:02.626Z,99.90
2019-04-20T06:17:10.098Z,99.90
2019-04-20T06:19:51.976Z,99.90
2019-04-20T06:22:41.738Z,99.90
2019-04-20T06:25:36.902Z,99.90
2019-04-20T06:27:55.363Z,99.90
2019-04-20T06:30:13.617Z,99.90
2019-04-20T06:34:01.287Z,99.90
2019-04-20T06:36:29.239Z,99.90
2019-04-20T06:41:32.714Z,99.90
2019-04-20T06:44:02.178Z,99.90
2019-04-20T06:46:36.536Z,99.90
2019-04-20T06:49:13.464Z,99.90
2019-04-20T06:51:47.620Z,99.90
2019-04-20T06:54:12.353Z,99.90
2019-04-20T06:56:59.926Z,99.90
2019-04-20T06:59:31.737Z,99.90
2019-04-20T07:02:11.193Z,99.90
2019-04-20T07:04:50.710Z,99.90
2019-04-20T07:09:59.843Z,99.90
2019-04-20T07:12:17.146Z,99.90
2019-04-20T07:14:42.687Z,99.90
2019-04-20T07:17:39.380Z,99.90
2019-04-20T07:20:19.469Z,99.90
2019-04-20T07:23:11.329Z,99.90
2019-04-20T07:25:40.664Z,99.90
2019-04-20T07:28:05.462Z,99.90
2019-04-20T07:30:41.902Z,99.90
2019-04-20T07:33:20.028Z,99.90
2019-04-20T07:35:46.121Z,99.90
2019-04-20T07:40:49.978Z,99.90
2019-04-20T07:43:25.513Z,99.90
2019-04-20T07:46:02.762Z,99.90
2019-04-20T07:48:33.867Z,99.90
2019-04-20T07:50:55.597Z,99.90
2019-04-20T07:53:33.009Z,99.90
2019-04-20T07:56:13.444Z,99.90
2019-04-20T07:58:33.915Z,99.90
2019-04-20T08:01:30.135Z,99.90
2019-04-20T08:04:06.369Z,99.90
2019-04-20T08:06:36.742Z,99.90
2019-04-20T08:09:16.079Z,99.90
2019-04-20T08:11:56.730Z,99.90
2019-04-20T08:14:32.012Z,99.90
2019-04-20T08:17:14.032Z,99.90
2019-04-20T08:19:28.654Z,99.90
2019-04-20T08:22:08.193Z,99.90
2019-04-20T08:24:37.178Z,99.90
2019-04-20T08:27:09.510Z,99.90
2019-04-20T08:29:57.938Z,99.90
2019-04-20T08:32:50.635Z,99.90
2019-04-20T08:35:33.198Z,99.90
2019-04-20T08:38:33.794Z,99.90
2019-04-20T08:40:37.618Z,99.90
2019-04-20T08:43:20.144Z,99.90
2019-04-20T08:47:06.147Z,99.90
2019-04-20T08:49:37.948Z,99.90
2019-04-20T08:52:12.363Z,99.90
2019-04-20T08:54:31.204Z,99.90
2019-04-20T08:56:55.320Z,99.90
2019-04-20T08:59:23.386Z,99.90
2019-04-20T09:01:58.981Z,99.90
2019-04-20T09:04:37.109Z,99.90
2019-04-20T09:07:12.758Z,99.90
2019-04-20T09:09:53.269Z,99.90
2019-04-20T09:12:24.387Z,99.90
2019-04-20T09:14:42.870Z,99.90
2019-04-20T09:17:27.283Z,99.90
2019-04-20T09:19:59.951Z,99.90
2019-04-20T09:22:46.693Z,99.90
2019-04-20T09:25:44.199Z,99.90
2019-04-20T09:27:57.808Z,99.90
2019-04-20T09:30:34.887Z,99.90
2019-04-20T09:33:20.761Z,99.90
2019-04-20T09:35:50.828Z,99.90
2019-04-20T09:38:15.512Z,99.90
2019-04-20T09:40:52.427Z,99.90
2019-04-20T09:43:28.118Z,99.90
2019-04-20T09:46:03.646Z,99.90
2019-04-20T09:48:40.297Z,99.90
2019-04-20T09:51:24.782Z,99.90
2019-04-20T09:53:48.145Z,99.90
2019-04-20T09:56:29.071Z,99.90
2019-04-20T09:59:06.870Z,99.90
2019-04-20T10:01:29.093Z,99.10
2019-04-20T10:03:52.488Z,98.50
2019-04-20T10:06:30.027Z,99.40
2019-04-20T10:09:00.483Z,99.90
2019-04-20T10:11:31.933Z,97.80
2019-04-20T10:14:04.003Z,95.70
2019-04-20T10:16:35.683Z,95.20
2019-04-20T10:19:10.512Z,95.70
2019-04-20T10:21:41.770Z,94.30
2019-04-20T10:24:14.588Z,94.30
2019-04-20T10:26:45.767Z,93.10
2019-04-20T10:29:17.509Z,94.30
2019-04-20T10:31:56.670Z,91.60
2019-04-20T10:34:24.079Z,89.00
2019-04-20T10:37:15.596Z,87.80
2019-04-20T10:39:46.873Z,83.60
2019-04-20T10:42:18.330Z,80.20
2019-04-20T10:44:52.221Z,77.80
2019-04-20T10:47:25.311Z,75.50
2019-04-20T10:49:56.983Z,71.30
2019-04-20T10:52:29.792Z,69.40
2019-04-20T10:55:00.958Z,68.70
2019-04-20T10:57:33.388Z,68.10
2019-04-20T11:00:05.840Z,60.80
2019-04-20T11:02:37.501Z,60.30
2019-04-20T11:05:10.693Z,61.10
2019-04-20T11:07:42.086Z,64.30
2019-04-20T11:10:20.606Z,63.80
2019-04-20T11:12:48.340Z,60.50
2019-04-20T11:15:21.211Z,59.10
2019-04-20T11:17:53.273Z,58.90
2019-04-20T11:20:25.557Z,59.90
2019-04-20T11:22:58.107Z,60.10
2019-04-20T11:25:30.379Z,58.80
2019-04-20T11:28:01.983Z,61.10
2019-04-20T11:30:34.091Z,62.40
2019-04-20T11:33:06.358Z,59.90
2019-04-20T11:35:41.284Z,60.70
2019-04-20T11:38:13.809Z,61.00
2019-04-20T11:40:44.871Z,58.40
2019-04-20T11:43:18.177Z,58.20
2019-04-20T11:45:51.001Z,60.40
2019-04-20T11:48:23.370Z,61.70
2019-04-20T11:50:55.718Z,58.60
2019-04-20T11:53:28.592Z,62.70
2019-04-20T11:56:02.548Z,58.20
2019-04-20T11:58:36.055Z,56.00
2019-04-20T12:01:28.066Z,54.40
2019-04-20T12:04:17.182Z,54.90
2019-04-20T12:06:36.918Z,52.90
2019-04-20T12:09:12.774Z,53.80
2019-04-20T12:11:56.219Z,52.40
2019-04-20T12:14:18.833Z,51.60
2019-04-20T12:16:50.277Z,51.70
2019-04-20T12:19:22.901Z,51.60
2019-04-20T12:21:55.818Z,50.60
2019-04-20T12:24:27.490Z,51.90
2019-04-20T12:26:58.788Z,50.40
2019-04-20T12:29:29.981Z,51.10
2019-04-20T12:32:04.168Z,49.40
2019-04-20T12:34:35.108Z,50.30
2019-04-20T12:37:07.115Z,50.40
2019-04-20T12:39:39.405Z,50.80
2019-04-20T12:42:11.310Z,48.60
2019-04-20T12:44:43.791Z,47.80
2019-04-20T12:47:15.328Z,47.40
2019-04-20T12:49:47.575Z,46.70
2019-04-20T12:52:19.070Z,47.70
2019-04-20T12:54:50.497Z,49.10
2019-04-20T12:57:22.699Z,47.30
2019-04-20T12:59:54.094Z,46.00
2019-04-20T13:02:27.255Z,47.80
2019-04-20T13:04:59.527Z,46.00
2019-04-20T13:07:38.116Z,45.80
2019-04-20T13:10:04.024Z,46.50
2019-04-20T13:12:54.429Z,45.60
2019-04-20T13:15:46.556Z,46.50
2019-04-20T13:18:23.223Z,46.00
2019-04-20T13:20:57.992Z,47.50
2019-04-20T13:23:28.893Z,45.50
2019-04-20T13:26:02.182Z,46.60
2019-04-20T13:28:34.697Z,45.10
2019-04-20T13:31:08.111Z,44.90
2019-04-20T13:33:39.461Z,45.30
2019-04-20T13:36:12.496Z,46.20
2019-04-20T13:38:44.212Z,45.20
2019-04-20T13:41:15.807Z,44.90
2019-04-20T13:43:48.084Z,44.30
2019-04-20T13:46:20.736Z,42.80
2019-04-20T13:48:53.177Z,44.40
2019-04-20T13:51:24.799Z,45.00
2019-04-20T13:53:57.317Z,47.50
2019-04-20T13:56:30.041Z,44.60
2019-04-20T13:59:24.561Z,44.50
2019-04-20T14:02:25.074Z,46.30
2019-04-20T14:05:04.529Z,43.80
2019-04-20T14:07:35.706Z,44.90
2019-04-20T14:10:09.224Z,45.40
2019-04-20T14:12:52.406Z,44.00
2019-04-20T14:15:15.269Z,43.20
2019-04-20T14:17:46.943Z,42.50
2019-04-20T14:20:21.707Z,41.10
2019-04-20T14:22:52.863Z,42.10
2019-04-20T14:25:24.911Z,42.30
2019-04-20T14:27:57.269Z,41.00
2019-04-20T14:30:29.060Z,41.90
2019-04-20T14:33:01.000Z,41.40
2019-04-20T14:35:32.748Z,40.10
2019-04-20T14:38:05.594Z,41.70
2019-04-20T14:40:36.765Z,41.60
2019-04-20T14:43:08.988Z,41.10
2019-04-20T14:45:40.778Z,43.30
2019-04-20T14:48:12.579Z,40.70
2019-04-20T14:50:43.865Z,40.10
2019-04-20T14:53:15.674Z,39.30
2019-04-20T14:55:47.308Z,39.90
2019-04-20T14:58:38.363Z,40.40
2019-04-20T15:01:22.687Z,41.40
2019-04-20T15:03:59.835Z,39.10
2019-04-20T15:06:27.908Z,39.80
2019-04-20T15:08:59.306Z,39.80
2019-04-20T15:11:31.068Z,39.30
2019-04-20T15:14:02.685Z,39.20
2019-04-20T15:16:34.794Z,39.50
2019-04-20T15:19:25.326Z,39.10
2019-04-20T15:21:59.519Z,38.70
2019-04-20T15:24:31.556Z,38.60
2019-04-20T15:27:02.895Z,37.70
2019-04-20T15:29:36.080Z,37.50
2019-04-20T15:32:08.168Z,38.70
2019-04-20T15:34:39.832Z,38.80
2019-04-20T15:37:11.958Z,38.10
2019-04-20T15:39:43.612Z,38.20
2019-04-20T15:42:15.337Z,38.40
2019-04-20T15:44:47.315Z,38.30
2019-04-20T15:47:20.299Z,39.60
2019-04-20T15:49:51.861Z,39.10
2019-04-20T15:52:29.370Z,39.40
2019-04-20T15:54:56.005Z,38.90
2019-04-20T15:57:29.701Z,38.90
2019-04-20T16:00:02.692Z,38.60
2019-04-20T16:02:43.324Z,38.40
2019-04-20T16:05:33.616Z,40.60
2019-04-20T16:08:26.215Z,38.80
2019-04-20T16:10:59.386Z,38.60
2019-04-20T16:13:37.583Z,39.00
2019-04-20T16:16:05.863Z,38.90
2019-04-20T16:18:39.004Z,39.60
2019-04-20T16:21:17.860Z,38.80
2019-04-20T16:23:48.675Z,39.30
2019-04-20T16:26:29.506Z,38.60
2019-04-20T16:29:01.897Z,38.90
2019-04-20T16:31:33.543Z,40.60
2019-04-20T16:34:07.460Z,38.70
2019-04-20T16:36:40.872Z,39.30
2019-04-20T16:39:12.683Z,38.60
2019-04-20T16:41:44.754Z,39.50
2019-04-20T16:44:17.567Z,39.00
2019-04-20T16:46:50.111Z,39.50
2019-04-20T16:49:23.360Z,39.80
2019-04-20T16:51:55.124Z,40.90
2019-04-20T16:54:27.958Z,40.90
2019-04-20T16:57:00.547Z,40.60
2019-04-20T16:59:39.012Z,41.50
2019-04-20T17:02:06.647Z,40.40
2019-04-20T17:04:41.134Z,41.40
2019-04-20T17:07:31.151Z,41.70
2019-04-20T17:10:04.147Z,42.50
2019-04-20T17:12:37.498Z,41.60
2019-04-20T17:15:11.790Z,41.80
2019-04-20T17:17:47.648Z,42.00
2019-04-20T17:20:17.906Z,42.50
2019-04-20T17:22:50.757Z,43.50
2019-04-20T17:25:23.943Z,42.90
2019-04-20T17:28:26.732Z,43.20
2019-04-20T17:31:09.158Z,43.40
2019-04-20T17:34:01.463Z,44.10
2019-04-20T17:36:27.735Z,43.90
2019-04-20T17:39:00.573Z,43.70
2019-04-20T17:41:53.008Z,44.90
2019-04-20T17:44:23.761Z,44.90
2019-04-20T17:46:47.994Z,45.00
2019-04-20T17:49:28.115Z,44.40
2019-04-20T17:52:06.713Z,45.10
2019-04-20T17:54:39.682Z,45.10
2019-04-20T17:57:13.098Z,45.00
2019-04-20T17:59:53.199Z,44.80
2019-04-20T18:03:06.122Z,45.30
2019-04-20T18:05:55.765Z,45.20
2019-04-20T18:08:32.673Z,46.50
2019-04-20T18:10:57.262Z,46.10
2019-04-20T18:13:23.973Z,46.10
2019-04-20T18:16:17.337Z,45.90
2019-04-20T18:18:56.221Z,46.30
2019-04-20T18:21:41.455Z,46.30
2019-04-20T18:24:23.983Z,47.40
2019-04-20T18:27:03.025Z,47.90
2019-04-20T18:29:37.036Z,48.50
2019-04-20T18:32:15.640Z,48.60
2019-04-20T18:35:00.872Z,48.50
2019-04-20T18:37:30.978Z,49.40
2019-04-20T18:40:09.093Z,50.10
2019-04-20T18:42:40.466Z,50.30
2019-04-20T18:45:28.416Z,51.10
2019-04-20T18:48:02.688Z,51.20
2019-04-20T18:50:27.635Z,51.70
2019-04-20T18:52:51.940Z,51.70
2019-04-20T18:55:33.276Z,51.60
2019-04-20T18:57:57.332Z,52.30
2019-04-20T19:00:33.743Z,52.40
2019-04-20T19:03:09.612Z,52.80
2019-04-20T19:05:37.867Z,53.10
2019-04-20T19:08:13.264Z,53.00
2019-04-20T19:10:52.276Z,53.80
2019-04-20T19:13:28.718Z,53.90
2019-04-20T19:16:22.757Z,53.60
2019-04-20T19:19:06.361Z,54.60
2019-04-20T19:21:33.251Z,54.60
2019-04-20T19:24:12.259Z,55.10
2019-04-20T19:26:44.980Z,55.80
2019-04-20T19:29:20.426Z,56.50
2019-04-20T19:32:07.346Z,56.80
2019-04-20T19:34:40.135Z,56.70
2019-04-20T19:37:04.098Z,56.80
2019-04-20T19:39:44.864Z,56.10
2019-04-20T19:42:16.049Z,56.50
2019-04-20T19:44:53.263Z,57.20
2019-04-20T19:47:28.185Z,56.70
2019-04-20T19:49:51.560Z,57.50
2019-04-20T19:53:00.126Z,58.30
2019-04-20T19:55:08.284Z,57.80
2019-04-20T19:57:37.202Z,58.40
2019-04-20T19:59:56.692Z,58.00
2019-04-20T20:02:29.859Z,59.00
2019-04-20T20:05:08.291Z,60.00
2019-04-20T20:07:41.860Z,59.50
2019-04-20T20:10:10.999Z,59.50
2019-04-20T20:12:47.957Z,59.60
2019-04-20T20:15:24.549Z,60.10
2019-04-20T20:18:14.067Z,61.30
2019-04-20T20:20:45.564Z,61.60
2019-04-20T20:22:59.785Z,61.40
2019-04-20T20:25:36.565Z,61.90
2019-04-20T20:28:14.590Z,60.80
2019-04-20T20:30:51.271Z,60.90
2019-04-20T20:33:29.389Z,60.80
2019-04-20T20:35:52.988Z,61.00
2019-04-20T20:38:25.588Z,62.30
2019-04-20T20:40:58.849Z,62.50
2019-04-20T20:43:42.373Z,62.80
2019-04-20T20:46:10.570Z,62.60
2019-04-20T20:48:53.041Z,63.10
2019-04-20T20:51:23.261Z,63.60
2019-04-20T20:53:48.416Z,62.90
2019-04-20T20:56:18.520Z,63.80
2019-04-20T20:58:53.332Z,63.60
2019-04-20T21:01:22.131Z,63.90
2019-04-20T21:03:52.639Z,63.10
2019-04-20T21:06:22.398Z,64.20
2019-04-20T21:08:56.649Z,64.30
2019-04-20T21:11:31.416Z,63.80
2019-04-20T21:14:01.371Z,64.20
2019-04-20T21:16:36.633Z,65.50
2019-04-20T21:19:21.084Z,65.30
2019-04-20T21:21:49.603Z,65.90
2019-04-20T21:24:33.745Z,68.00
2019-04-20T21:27:07.854Z,68.40
2019-04-20T21:29:44.369Z,69.10
2019-04-20T21:32:14.726Z,70.50
2019-04-20T21:34:49.220Z,74.00
2019-04-20T21:37:22.391Z,75.80
2019-04-20T21:39:56.140Z,77.60
2019-04-20T21:42:26.752Z,78.70
2019-04-20T21:45:08.136Z,81.00
2019-04-20T21:47:34.858Z,80.30
2019-04-20T21:50:23.043Z,81.50
2019-04-20T21:52:42.973Z,83.20
2019-04-20T21:55:12.039Z,84.10
2019-04-20T21:57:51.106Z,83.80
2019-04-20T22:00:42.480Z,85.00
2019-04-20T22:03:11.246Z,87.10
2019-04-20T22:05:42.422Z,87.20
2019-04-20T22:08:17.469Z,89.80
2019-04-20T22:10:47.312Z,91.30
2019-04-20T22:13:25.503Z,93.30
2019-04-20T22:15:59.528Z,94.20
2019-04-20T22:18:26.737Z,95.70
2019-04-20T22:21:10.933Z,97.10
2019-04-20T22:23:48.983Z,98.50
2019-04-20T22:26:17.406Z,99.90
2019-04-20T22:28:36.450Z,99.90
2019-04-20T22:31:08.402Z,99.90
2019-04-20T22:33:43.054Z,99.90
2019-04-20T22:36:14.573Z,99.90
2019-04-20T22:39:07.347Z,99.90
2019-04-20T22:41:45.806Z,99.90
2019-04-20T22:44:20.413Z,99.90
2019-04-20T22:46:50.088Z,99.90
2019-04-20T22:49:36.268Z,99.90
2019-04-20T22:52:03.028Z,99.90
2019-04-20T22:54:44.713Z,99.90
2019-04-20T22:57:11.776Z,99.90
2019-04-20T22:59:41.827Z,99.90
2019-04-20T23:02:09.435Z,99.90
2019-04-20T23:04:40.465Z,99.90
2019-04-20T23:07:12.781Z,99.90
2019-04-20T23:09:50.878Z,99.90
2019-04-20T23:12:21.139Z,99.90
2019-04-20T23:14:52.285Z,99.90
2019-04-20T23:17:29.614Z,99.90
2019-04-20T23:19:59.229Z,99.90
2019-04-20T23:22:36.854Z,99.90
2019-04-20T23:25:03.127Z,99.90
2019-04-20T23:27:35.573Z,99.90
2019-04-20T23:30:12.587Z,99.90
2019-04-20T23:32:42.125Z,99.90
2019-04-20T23:35:18.123Z,99.90
2019-04-20T23:37:46.683Z,99.90
2019-04-20T23:40:19.461Z,99.90
2019-04-20T23:42:55.806Z,99.90
2019-04-20T23:45:52.843Z,99.90
2019-04-20T23:48:33.721Z,99.90
2019-04-20T23:51:27.885Z,99.90
2019-04-20T23:53:48.184Z,99.90
2019-04-20T23:56:15.639Z,99.90
2019-04-20T23:58:46.601Z,99.90
